createdAt,value
2022-10-28T00:00:51.878Z,98858.50
2022-10-28T00:03:20.873Z,98852.44
2022-10-28T00:05:48.913Z,98842.09
2022-10-28T00:08:18.592Z,98844.53
2022-10-28T00:10:46.234Z,98847.22
2022-10-28T00:13:17.059Z,98845.31
2022-10-28T00:15:46.012Z,98835.16
2022-10-28T00:18:15.827Z,98837.34
2022-10-28T00:20:49.394Z,98840.28
2022-10-28T00:23:19.798Z,98829.50
2022-10-28T00:25:47.106Z,98836.56
2022-10-28T00:28:17.714Z,98832.81
2022-10-28T00:30:47.834Z,98833.84
2022-10-28T00:33:16.518Z,98824.09
2022-10-28T00:35:48.377Z,98833.84
2022-10-28T00:38:16.926Z,98829.50
2022-10-28T00:40:46.928Z,98836.56
2022-10-28T00:43:17.569Z,98834.25
2022-10-28T00:45:45.297Z,98828.66
2022-10-28T00:48:14.509Z,98828.66
2022-10-28T00:50:46.817Z,98831.38
2022-10-28T00:53:27.133Z,98831.56
2022-10-28T00:55:56.497Z,98827.00
2022-10-28T00:58:26.777Z,98833.22
2022-10-28T01:00:54.405Z,98830.53
2022-10-28T01:03:22.433Z,98826.78
2022-10-28T01:05:50.014Z,98833.03
2022-10-28T01:08:19.790Z,98824.72
2022-10-28T01:11:14.136Z,98825.13
2022-10-28T01:14:08.985Z,98825.97
2022-10-28T01:16:45.589Z,98816.38
2022-10-28T01:19:51.485Z,98817.19
2022-10-28T01:22:27.756Z,98801.00
2022-10-28T01:25:26.517Z,98809.31
2022-10-28T01:28:10.874Z,98808.28
2022-10-28T01:31:23.944Z,98800.19
2022-10-28T01:34:01.786Z,98801.00
2022-10-28T01:36:38.925Z,98803.91
2022-10-28T01:39:13.982Z,98792.50
2022-10-28T01:41:50.733Z,98797.88
2022-10-28T01:44:24.642Z,98792.66
2022-10-28T01:46:59.886Z,98795.19
2022-10-28T01:49:34.502Z,98792.84
2022-10-28T01:52:06.019Z,98790.53
2022-10-28T01:54:36.552Z,98788.88
2022-10-28T01:57:05.677Z,98785.97
2022-10-28T01:59:34.594Z,98775.38
2022-10-28T02:02:03.969Z,98773.50
2022-10-28T02:04:31.319Z,98775.38
2022-10-28T02:07:01.032Z,98769.13
2022-10-28T02:09:38.754Z,98773.72
2022-10-28T02:12:25.438Z,98769.34
2022-10-28T02:15:18.595Z,98766.00
2022-10-28T02:17:57.607Z,98755.00
2022-10-28T02:20:35.004Z,98751.28
2022-10-28T02:23:16.187Z,98755.84
2022-10-28T02:25:48.479Z,98747.75
2022-10-28T02:28:22.791Z,98754.81
2022-10-28T02:30:54.448Z,98745.69
2022-10-28T02:33:27.807Z,98752.13
2022-10-28T02:36:00.805Z,98754.44
2022-10-28T02:38:33.442Z,98752.78
2022-10-28T02:41:06.977Z,98754.63
2022-10-28T02:43:38.228Z,98749.22
2022-10-28T02:46:06.915Z,98745.50
2022-10-28T02:48:41.117Z,98762.91
2022-10-28T02:51:13.677Z,98749.06
2022-10-28T02:53:53.069Z,98753.31
2022-10-28T02:56:22.114Z,98756.88
2022-10-28T02:58:53.336Z,98755.44
2022-10-28T03:01:24.378Z,98761.59
2022-10-28T03:03:53.318Z,98749.75
2022-10-28T03:06:20.804Z,98746.91
2022-10-28T03:08:49.357Z,98749.88
2022-10-28T03:11:16.843Z,98746.16
2022-10-28T03:13:44.217Z,98738.53
2022-10-28T03:16:11.596Z,98741.06
2022-10-28T03:18:40.236Z,98756.75
2022-10-28T03:21:10.469Z,98739.16
2022-10-28T03:23:39.816Z,98738.34
2022-10-28T03:26:08.413Z,98740.47
2022-10-28T03:28:38.516Z,98737.47
2022-10-28T03:31:09.048Z,98743.16
2022-10-28T03:33:43.545Z,98746.94
2022-10-28T03:36:12.306Z,98749.47
2022-10-28T03:38:39.652Z,98746.56
2022-10-28T03:41:07.850Z,98742.19
2022-10-28T03:43:38.070Z,98744.06
2022-10-28T03:46:08.474Z,98735.75
2022-10-28T03:48:38.913Z,98732.72
2022-10-28T03:51:07.578Z,98726.09
2022-10-28T03:53:37.919Z,98727.03
2022-10-28T03:56:07.838Z,98724.97
2022-10-28T03:58:40.909Z,98733.91
2022-10-28T04:01:08.851Z,98724.78
2022-10-28T04:03:36.393Z,98725.81
2022-10-28T04:06:06.761Z,98728.34
2022-10-28T04:08:37.687Z,98735.03
2022-10-28T04:11:06.524Z,98730.03
2022-10-28T04:13:37.083Z,98729.34
2022-10-28T04:16:05.888Z,98728.16
2022-10-28T04:18:36.195Z,98729.81
2022-10-28T04:21:05.138Z,98730.38
2022-10-28T04:23:35.554Z,98726.00
2022-10-28T04:26:05.731Z,98730.56
2022-10-28T04:28:33.879Z,98728.69
2022-10-28T04:31:02.098Z,98726.56
2022-10-28T04:33:32.996Z,98712.50
2022-10-28T04:36:01.729Z,98717.78
2022-10-28T04:38:32.505Z,98717.53
2022-10-28T04:41:01.146Z,98715.22
2022-10-28T04:43:37.186Z,98717.09
2022-10-28T04:46:04.822Z,98709.41
2022-10-28T04:48:32.156Z,98714.69
2022-10-28T04:51:01.297Z,98715.41
2022-10-28T04:53:29.936Z,98720.72
2022-10-28T04:55:58.543Z,98702.00
2022-10-28T04:58:32.468Z,98714.06
2022-10-28T05:01:05.896Z,98703.50
2022-10-28T05:03:34.233Z,98714.69
2022-10-28T05:06:01.731Z,98714.56
2022-10-28T05:08:30.110Z,98719.84
2022-10-28T05:11:00.926Z,98719.84
2022-10-28T05:13:29.746Z,98712.75
2022-10-28T05:15:58.521Z,98713.03
2022-10-28T05:18:29.983Z,98705.91
2022-10-28T05:21:00.427Z,98707.00
2022-10-28T05:23:30.904Z,98705.44
2022-10-28T05:25:58.510Z,98702.69
2022-10-28T05:28:27.211Z,98712.13
2022-10-28T05:30:58.524Z,98707.34
2022-10-28T05:33:27.071Z,98708.50
2022-10-28T05:35:59.796Z,98720.38
2022-10-28T05:38:27.848Z,98707.06
2022-10-28T05:40:57.183Z,98716.81
2022-10-28T05:43:26.201Z,98708.66
2022-10-28T05:45:58.693Z,98701.66
2022-10-28T05:48:26.036Z,98709.00
2022-10-28T05:50:54.194Z,98709.06
2022-10-28T05:53:22.288Z,98713.66
2022-10-28T05:55:53.421Z,98724.28
2022-10-28T05:58:22.601Z,98716.31
2022-10-28T06:00:51.541Z,98711.38
2022-10-28T06:03:30.115Z,98709.72
2022-10-28T06:05:59.513Z,98716.25
2022-10-28T06:08:27.408Z,98720.38
2022-10-28T06:10:57.027Z,98723.13
2022-10-28T06:13:24.445Z,98722.78
2022-10-28T06:15:55.951Z,98724.97
2022-10-28T06:18:24.823Z,98718.53
2022-10-28T06:20:53.805Z,98713.44
2022-10-28T06:23:25.494Z,98720.03
2022-10-28T06:28:28.829Z,98709.47
2022-10-28T06:31:01.002Z,98703.00
2022-10-28T06:33:29.854Z,98704.41
2022-10-28T06:35:57.338Z,98712.75
2022-10-28T06:38:25.247Z,98715.91
2022-10-28T06:40:52.804Z,98714.19
2022-10-28T06:43:20.205Z,98699.66
2022-10-28T06:45:47.575Z,98717.19
2022-10-28T06:48:16.387Z,98716.16
2022-10-28T06:50:45.174Z,98709.75
2022-10-28T06:53:12.536Z,98711.28
2022-10-28T06:55:40.234Z,98723.75
2022-10-28T06:58:08.570Z,98717.34
2022-10-28T07:00:38.179Z,98717.91
2022-10-28T07:03:10.311Z,98728.50
2022-10-28T07:05:41.012Z,98720.41
2022-10-28T07:08:10.997Z,98709.81
2022-10-28T07:10:38.384Z,98714.19
2022-10-28T07:13:08.613Z,98719.56
2022-10-28T07:15:39.776Z,98715.72
2022-10-28T07:18:07.171Z,98715.72
2022-10-28T07:20:41.295Z,98720.59
2022-10-28T07:23:10.456Z,98716.25
2022-10-28T07:25:37.929Z,98710.44
2022-10-28T07:28:06.656Z,98704.72
2022-10-28T07:30:36.205Z,98701.19
2022-10-28T07:33:05.152Z,98714.28
2022-10-28T07:35:35.856Z,98719.75
2022-10-28T07:38:05.293Z,98718.94
2022-10-28T07:40:37.977Z,98725.09
2022-10-28T07:43:05.354Z,98714.81
2022-10-28T07:45:35.947Z,98728.69
2022-10-28T07:48:04.192Z,98733.28
2022-10-28T07:50:33.611Z,98721.19
2022-10-28T07:53:04.248Z,98727.03
2022-10-28T07:55:35.318Z,98727.03
2022-10-28T07:58:05.073Z,98715.13
2022-10-28T08:00:35.283Z,98729.47
2022-10-28T08:03:03.893Z,98730.47
2022-10-28T08:05:32.647Z,98716.25
2022-10-28T08:08:01.427Z,98728.41
2022-10-28T08:10:30.705Z,98731.16
2022-10-28T08:13:00.859Z,98728.16
2022-10-28T08:15:31.434Z,98715.66
2022-10-28T08:18:01.222Z,98719.75
2022-10-28T08:20:31.080Z,98720.81
2022-10-28T08:23:02.903Z,98723.03
2022-10-28T08:25:32.885Z,98713.47
2022-10-28T08:28:01.780Z,98728.22
2022-10-28T08:30:40.330Z,98725.34
2022-10-28T08:33:18.409Z,98717.38
2022-10-28T08:35:50.216Z,98725.47
2022-10-28T08:38:19.086Z,98719.69
2022-10-28T08:40:58.453Z,98717.16
2022-10-28T08:43:56.086Z,98713.66
2022-10-28T08:46:50.684Z,98717.66
2022-10-28T08:49:22.085Z,98707.97
2022-10-28T08:51:55.256Z,98712.72
2022-10-28T08:54:27.665Z,98715.22
2022-10-28T08:56:57.877Z,98728.50
2022-10-28T08:59:34.198Z,98729.16
2022-10-28T09:02:14.392Z,98718.75
2022-10-28T09:04:44.064Z,98711.34
2022-10-28T09:07:14.366Z,98706.16
2022-10-28T09:09:42.514Z,98704.94
2022-10-28T09:12:21.649Z,98710.16
2022-10-28T09:15:06.226Z,98705.84
2022-10-28T09:17:40.962Z,98705.63
2022-10-28T09:20:17.823Z,98700.00
2022-10-28T09:22:57.236Z,98699.16
2022-10-28T09:25:34.253Z,98703.59
2022-10-28T09:28:25.105Z,98705.91
2022-10-28T09:31:00.480Z,98703.84
2022-10-28T09:33:49.511Z,98704.41
2022-10-28T09:36:23.598Z,98715.84
2022-10-28T09:38:55.020Z,98712.75
2022-10-28T09:41:25.590Z,98708.66
2022-10-28T09:43:57.428Z,98703.91
2022-10-28T09:46:33.255Z,98706.63
2022-10-28T09:49:10.718Z,98708.94
2022-10-28T09:51:46.341Z,98696.50
2022-10-28T09:54:14.269Z,98706.22
2022-10-28T09:56:42.265Z,98706.19
2022-10-28T09:59:13.639Z,98706.22
2022-10-28T10:01:44.228Z,98698.81
2022-10-28T10:04:19.830Z,98701.16
2022-10-28T10:06:51.650Z,98691.66
2022-10-28T10:09:24.830Z,98694.16
2022-10-28T10:11:55.892Z,98693.91
2022-10-28T10:14:28.911Z,98689.19
2022-10-28T10:17:02.873Z,98711.03
2022-10-28T10:20:00.560Z,98712.00
2022-10-28T10:22:41.336Z,98709.81
2022-10-28T10:25:24.627Z,98707.22
2022-10-28T10:27:54.392Z,98709.56
2022-10-28T10:30:23.631Z,98713.47
2022-10-28T10:32:53.095Z,98698.75
2022-10-28T10:35:24.378Z,98695.59
2022-10-28T10:37:53.639Z,98696.38
2022-10-28T10:40:28.005Z,98694.75
2022-10-28T10:43:12.885Z,98704.31
2022-10-28T10:45:42.113Z,98699.09
2022-10-28T10:48:15.731Z,98702.88
2022-10-28T10:50:46.459Z,98697.75
2022-10-28T10:53:21.110Z,98693.56
2022-10-28T10:56:01.111Z,98693.97
2022-10-28T10:58:31.229Z,98698.00
2022-10-28T11:01:03.213Z,98698.16
2022-10-28T11:03:35.873Z,98690.44
2022-10-28T11:08:58.963Z,98706.03
2022-10-28T11:11:38.271Z,98711.88
2022-10-28T11:14:18.251Z,98706.94
2022-10-28T11:16:49.793Z,98701.41
2022-10-28T11:19:23.280Z,98704.16
2022-10-28T11:22:14.397Z,98706.53
2022-10-28T11:25:19.933Z,98711.53
2022-10-28T11:28:01.518Z,98718.59
2022-10-28T11:30:40.950Z,98718.19
2022-10-28T11:33:29.316Z,98721.53
2022-10-28T11:36:05.211Z,98719.91
2022-10-28T11:39:03.221Z,98723.31
2022-10-28T11:41:47.803Z,98731.16
2022-10-28T11:44:26.116Z,98734.75
2022-10-28T11:47:06.424Z,98738.44
2022-10-28T11:50:05.990Z,98738.13
2022-10-28T11:52:49.977Z,98744.47
2022-10-28T11:55:29.284Z,98746.13
2022-10-28T11:58:08.168Z,98749.88
2022-10-28T12:01:06.888Z,98754.19
2022-10-28T12:04:03.861Z,98757.78
2022-10-28T12:06:53.880Z,98744.66
2022-10-28T12:09:30.052Z,98751.03
2022-10-28T12:12:15.356Z,98748.38
2022-10-28T12:14:52.882Z,98742.75
2022-10-28T12:17:29.731Z,98756.88
2022-10-28T12:20:07.873Z,98752.69
2022-10-28T12:22:45.738Z,98747.13
2022-10-28T12:25:19.391Z,98749.00
2022-10-28T12:27:49.588Z,98755.00
2022-10-28T12:30:21.785Z,98749.16
2022-10-28T12:32:54.669Z,98752.75
2022-10-28T12:35:25.153Z,98755.09
2022-10-28T12:38:00.347Z,98763.59
2022-10-28T12:40:37.392Z,98760.66
2022-10-28T12:43:10.719Z,98764.84
2022-10-28T12:45:43.330Z,98780.59
2022-10-28T12:48:21.517Z,98786.16
2022-10-28T12:50:53.432Z,98783.47
2022-10-28T12:53:35.398Z,98778.47
2022-10-28T12:56:09.755Z,98782.22
2022-10-28T12:58:46.728Z,98780.13
2022-10-28T13:01:17.387Z,98781.19
2022-10-28T13:03:45.278Z,98781.81
2022-10-28T13:06:31.093Z,98783.66
2022-10-28T13:09:34.850Z,98788.47
2022-10-28T13:12:33.159Z,98782.13
2022-10-28T13:15:29.332Z,98792.16
2022-10-28T13:18:15.532Z,98794.66
2022-10-28T13:20:48.428Z,98791.69
2022-10-28T13:23:25.189Z,98803.41
2022-10-28T13:26:00.821Z,98795.94
2022-10-28T13:28:33.072Z,98793.44
2022-10-28T13:31:03.614Z,98796.34
2022-10-28T13:33:34.180Z,98800.25
2022-10-28T13:36:11.052Z,98810.41
2022-10-28T13:38:40.369Z,98814.59
2022-10-28T13:41:35.780Z,98818.97
2022-10-28T13:44:29.111Z,98816.25
2022-10-28T13:47:24.587Z,98815.06
2022-10-28T13:50:14.805Z,98822.94
2022-10-28T13:52:43.441Z,98816.94
2022-10-28T13:55:43.131Z,98816.13
2022-10-28T13:58:21.111Z,98822.59
2022-10-28T14:00:53.274Z,98820.75
2022-10-28T14:03:24.440Z,98815.16
2022-10-28T14:05:55.336Z,98815.34
2022-10-28T14:08:27.975Z,98821.22
2022-10-28T14:11:03.158Z,98826.16
2022-10-28T14:13:33.808Z,98828.66
2022-10-28T14:16:26.249Z,98826.28
2022-10-28T14:19:00.984Z,98820.63
2022-10-28T14:21:45.051Z,98827.06
2022-10-28T14:24:29.877Z,98819.53
2022-10-28T14:27:30.835Z,98818.31
2022-10-28T14:30:31.516Z,98832.81
2022-10-28T14:33:27.171Z,98832.47
2022-10-28T14:36:21.887Z,98829.13
2022-10-28T14:39:13.902Z,98826.44
2022-10-28T14:41:56.399Z,98834.53
2022-10-28T14:44:38.041Z,98830.34
2022-10-28T14:47:30.091Z,98830.13
2022-10-28T14:50:03.005Z,98829.13
2022-10-28T14:52:34.602Z,98838.88
2022-10-28T14:55:05.531Z,98834.53
2022-10-28T14:57:34.636Z,98837.47
2022-10-28T15:00:04.607Z,98835.97
2022-10-28T15:02:35.423Z,98839.06
2022-10-28T15:05:15.925Z,98838.88
2022-10-28T15:07:47.292Z,98839.91
2022-10-28T15:10:25.826Z,98834.53
2022-10-28T15:12:55.225Z,98843.44
2022-10-28T15:15:24.223Z,98841.13
2022-10-28T15:17:52.886Z,98837.78
2022-10-28T15:20:25.158Z,98834.88
2022-10-28T15:22:53.694Z,98830.97
2022-10-28T15:25:22.853Z,98834.53
2022-10-28T15:27:52.442Z,98830.78
2022-10-28T15:30:22.421Z,98838.22
2022-10-28T15:32:50.003Z,98838.22
2022-10-28T15:35:40.657Z,98833.69
2022-10-28T15:38:35.180Z,98836.19
2022-10-28T15:41:43.823Z,98824.16
2022-10-28T15:44:35.545Z,98831.63
2022-10-28T15:47:16.671Z,98823.50
2022-10-28T15:49:44.573Z,98826.47
2022-10-28T15:52:38.122Z,98827.25
2022-10-28T15:55:35.811Z,98826.66
2022-10-28T15:58:36.201Z,98824.53
2022-10-28T16:01:15.690Z,98820.19
2022-10-28T16:03:47.072Z,98825.75
2022-10-28T16:06:25.843Z,98826.84
2022-10-28T16:09:07.933Z,98826.22
2022-10-28T16:11:37.153Z,98829.13
2022-10-28T16:14:19.704Z,98831.81
2022-10-28T16:16:51.564Z,98827.25
2022-10-28T16:19:33.186Z,98835.16
2022-10-28T16:22:00.710Z,98832.88
2022-10-28T16:24:29.583Z,98832.75
2022-10-28T16:27:13.752Z,98824.97
2022-10-28T16:29:41.113Z,98815.38
2022-10-28T16:32:11.728Z,98827.03
2022-10-28T16:34:39.377Z,98827.50
2022-10-28T16:37:20.591Z,98825.81
2022-10-28T16:39:49.702Z,98828.06
2022-10-28T16:42:18.219Z,98832.00
2022-10-28T16:44:45.806Z,98830.50
2022-10-28T16:47:14.701Z,98830.50
2022-10-28T16:49:42.997Z,98839.41
2022-10-28T16:52:15.750Z,98835.69
2022-10-28T16:54:43.377Z,98838.78
2022-10-28T16:57:12.188Z,98838.97
2022-10-28T16:59:39.690Z,98835.44
2022-10-28T17:02:15.669Z,98842.22
2022-10-28T17:04:43.121Z,98836.00
2022-10-28T17:07:13.879Z,98829.69
2022-10-28T17:09:41.375Z,98844.28
2022-10-28T17:12:14.204Z,98840.56
2022-10-28T17:14:41.938Z,98849.66
2022-10-28T17:17:10.048Z,98853.00
2022-10-28T17:19:37.747Z,98854.41
2022-10-28T17:22:09.154Z,98856.72
2022-10-28T17:24:38.122Z,98858.16
2022-10-28T17:27:06.041Z,98847.19
2022-10-28T17:29:34.990Z,98855.63
2022-10-28T17:32:02.504Z,98854.59
2022-10-28T17:34:30.061Z,98855.16
2022-10-28T17:36:57.479Z,98853.78
2022-10-28T17:39:26.555Z,98845.88
2022-10-28T17:41:54.314Z,98847.91
2022-10-28T17:44:21.862Z,98858.72
2022-10-28T17:46:50.925Z,98853.97
2022-10-28T17:49:18.612Z,98855.38
2022-10-28T17:51:46.224Z,98853.50
2022-10-28T17:54:13.747Z,98859.53
2022-10-28T17:56:41.223Z,98857.69
2022-10-28T17:59:08.741Z,98857.69
2022-10-28T18:01:36.688Z,98854.97
2022-10-28T18:04:06.940Z,98853.97
2022-10-28T18:06:34.638Z,98851.44
2022-10-28T18:09:05.005Z,98854.81
2022-10-28T18:11:34.581Z,98863.25
2022-10-28T18:14:04.527Z,98860.56
2022-10-28T18:16:33.452Z,98862.44
2022-10-28T18:19:07.003Z,98856.19
2022-10-28T18:21:35.563Z,98852.84
2022-10-28T18:24:06.634Z,98868.00
2022-10-28T18:26:35.479Z,98856.41
2022-10-28T18:29:04.220Z,98858.88
2022-10-28T18:31:33.102Z,98861.97
2022-10-28T18:34:03.595Z,98857.38
2022-10-28T18:36:33.759Z,98855.09
2022-10-28T18:39:02.242Z,98855.72
2022-10-28T18:41:32.116Z,98860.28
2022-10-28T18:44:03.987Z,98857.94
2022-10-28T18:46:33.489Z,98860.66
2022-10-28T18:51:34.857Z,98858.97
2022-10-28T18:54:02.416Z,98856.09
2022-10-28T18:56:31.119Z,98863.91
2022-10-28T18:58:59.688Z,98869.03
2022-10-28T19:01:29.028Z,98863.47
2022-10-28T19:04:01.095Z,98875.16
2022-10-28T19:06:31.071Z,98871.56
2022-10-28T19:09:01.427Z,98866.44
2022-10-28T19:11:30.669Z,98871.00
2022-10-28T19:13:59.264Z,98872.28
2022-10-28T19:16:29.800Z,98879.09
2022-10-28T19:18:59.191Z,98871.66
2022-10-28T19:21:28.363Z,98868.09
2022-10-28T19:24:00.753Z,98876.81
2022-10-28T19:26:28.341Z,98870.78
2022-10-28T19:28:58.741Z,98878.88
2022-10-28T19:31:29.131Z,98873.69
2022-10-28T19:33:56.487Z,98873.50
2022-10-28T19:36:27.350Z,98879.09
2022-10-28T19:38:56.793Z,98882.22
2022-10-28T19:41:30.162Z,98885.03
2022-10-28T19:43:59.934Z,98889.03
2022-10-28T19:46:28.691Z,98873.88
2022-10-28T19:48:57.166Z,98886.25
2022-10-28T19:51:27.442Z,98886.78
2022-10-28T19:53:57.151Z,98880.47
2022-10-28T19:56:26.608Z,98883.72
2022-10-28T19:58:58.776Z,98889.75
2022-10-28T20:01:28.113Z,98893.31
2022-10-28T20:03:56.351Z,98897.50
2022-10-28T20:06:25.776Z,98886.88
2022-10-28T20:08:53.578Z,98891.81
2022-10-28T20:11:26.305Z,98889.09
2022-10-28T20:13:57.184Z,98891.63
2022-10-28T20:16:25.501Z,98890.88
2022-10-28T20:18:54.129Z,98888.00
2022-10-28T20:21:23.049Z,98888.53
2022-10-28T20:26:26.495Z,98896.25
2022-10-28T20:28:56.206Z,98891.88
2022-10-28T20:31:24.194Z,98891.06
2022-10-28T20:33:52.826Z,98884.66
2022-10-28T20:36:23.287Z,98888.72
2022-10-28T20:38:53.836Z,98884.81
2022-10-28T20:41:21.865Z,98890.59
2022-10-28T20:43:50.285Z,98887.72
2022-10-28T20:46:20.330Z,98896.63
2022-10-28T20:48:48.449Z,98894.78
2022-10-28T20:51:16.338Z,98886.03
2022-10-28T20:53:43.801Z,98886.88
2022-10-28T20:56:16.325Z,98892.44
2022-10-28T20:58:43.739Z,98895.81
2022-10-28T21:01:14.487Z,98888.28
2022-10-28T21:03:44.097Z,98885.75
2022-10-28T21:08:41.860Z,98891.16
2022-10-28T21:11:12.396Z,98874.44
2022-10-28T21:13:39.868Z,98886.03
2022-10-28T21:16:09.813Z,98887.34
2022-10-28T21:18:38.300Z,98886.50
2022-10-28T21:21:11.222Z,98874.97
2022-10-28T21:23:38.561Z,98881.66
2022-10-28T21:26:07.607Z,98877.94
2022-10-28T21:28:38.743Z,98882.03
2022-10-28T21:31:07.990Z,98870.06
2022-10-28T21:33:36.583Z,98869.75
2022-10-28T21:36:07.073Z,98875.16
2022-10-28T21:38:36.069Z,98880.53
2022-10-28T21:41:05.923Z,98877.19
2022-10-28T21:43:36.569Z,98873.84
2022-10-28T21:46:04.906Z,98875.44
2022-10-28T21:48:33.796Z,98871.97
2022-10-28T21:51:08.496Z,98879.41
2022-10-28T21:53:40.772Z,98873.00
2022-10-28T21:56:13.818Z,98871.97
2022-10-28T21:58:44.207Z,98880.28
2022-10-28T22:01:14.276Z,98875.91
2022-10-28T22:03:42.229Z,98874.41
2022-10-28T22:06:10.004Z,98874.22
2022-10-28T22:08:37.507Z,98867.34
2022-10-28T22:11:07.874Z,98868.50
2022-10-28T22:13:35.810Z,98868.38
2022-10-28T22:16:05.612Z,98870.22
2022-10-28T22:18:32.955Z,98877.53
2022-10-28T22:21:05.061Z,98875.09
2022-10-28T22:23:32.453Z,98881.88
2022-10-28T22:26:01.770Z,98873.97
2022-10-28T22:28:31.272Z,98872.31
2022-10-28T22:30:59.153Z,98871.22
2022-10-28T22:33:27.624Z,98875.66
2022-10-28T22:36:01.358Z,98876.59
2022-10-28T22:38:28.780Z,98865.69
2022-10-28T22:41:03.304Z,98870.22
2022-10-28T22:43:32.432Z,98872.03
2022-10-28T22:46:00.274Z,98864.97
2022-10-28T22:48:28.033Z,98869.53
2022-10-28T22:50:58.343Z,98863.28
2022-10-28T22:53:28.258Z,98864.97
2022-10-28T22:55:57.635Z,98867.94
2022-10-28T22:58:26.287Z,98859.88
2022-10-28T23:01:06.958Z,98863.19
2022-10-28T23:03:38.572Z,98869.88
2022-10-28T23:06:06.560Z,98861.16
2022-10-28T23:08:34.052Z,98866.19
2022-10-28T23:11:01.828Z,98864.50
2022-10-28T23:13:29.883Z,98862.81
2022-10-28T23:15:57.267Z,98870.09
2022-10-28T23:18:28.072Z,98869.63
2022-10-28T23:20:55.418Z,98871.94
2022-10-28T23:23:24.217Z,98863.91
2022-10-28T23:25:54.783Z,98860.69
2022-10-28T23:28:25.133Z,98865.72
2022-10-28T23:30:53.228Z,98859.31
2022-10-28T23:33:23.463Z,98857.81
2022-10-28T23:35:59.257Z,98859.47
2022-10-28T23:38:26.849Z,98857.81
2022-10-28T23:40:55.530Z,98859.66
2022-10-28T23:43:23.441Z,98850.94
2022-10-28T23:45:54.254Z,98849.25
2022-10-28T23:48:23.473Z,98838.66
2022-10-28T23:50:51.857Z,98839.03
2022-10-28T23:53:24.272Z,98843.78
2022-10-28T23:55:52.136Z,98853.63
2022-10-28T23:58:23.393Z,98843.59
